sensor_id;sensor_type;location;lat;lon;timestamp;P1;durP1;ratioP1;P2;durP2;ratioP2
43419;SDS011;29017;51.514;-0.178;2023-05-18T00:00:49;9.10;;;1.48;;
43419;SDS011;29017;51.514;-0.178;2023-05-18T00:03:19;11.90;;;2.88;;
43419;SDS011;29017;51.514;-0.178;2023-05-18T00:05:47;8.10;;;0.98;;
43419;SDS011;29017;51.514;-0.178;2023-05-18T00:08:14;12.00;;;2.47;;
43419;SDS011;29017;51.514;-0.178;2023-05-18T00:10:42;9.25;;;1.58;;
43419;SDS011;29017;51.514;-0.178;2023-05-18T00:13:09;9.80;;;0.90;;
43419;SDS011;29017;51.514;-0.178;2023-05-18T00:15:36;10.05;;;0.95;;
43419;SDS011;29017;51.514;-0.178;2023-05-18T00:18:04;8.60;;;0.82;;
43419;SDS011;29017;51.514;-0.178;2023-05-18T00:20:32;4.65;;;0.80;;
43419;SDS011;29017;51.514;-0.178;2023-05-18T00:23:00;5.50;;;0.60;;
43419;SDS011;29017;51.514;-0.178;2023-05-18T00:25:28;6.85;;;0.80;;
43419;SDS011;29017;51.514;-0.178;2023-05-18T00:27:55;7.28;;;0.85;;
43419;SDS011;29017;51.514;-0.178;2023-05-18T00:30:22;12.32;;;0.93;;
43419;SDS011;29017;51.514;-0.178;2023-05-18T00:32:51;4.47;;;0.63;;
43419;SDS011;29017;51.514;-0.178;2023-05-18T00:35:18;8.25;;;0.60;;
43419;SDS011;29017;51.514;-0.178;2023-05-18T00:37:46;10.65;;;1.45;;
43419;SDS011;29017;51.514;-0.178;2023-05-18T00:40:13;6.93;;;1.00;;
43419;SDS011;29017;51.514;-0.178;2023-05-18T00:42:41;10.07;;;0.90;;
43419;SDS011;29017;51.514;-0.178;2023-05-18T00:45:08;7.38;;;1.10;;
43419;SDS011;29017;51.514;-0.178;2023-05-18T00:47:36;4.32;;;0.70;;
43419;SDS011;29017;51.514;-0.178;2023-05-18T00:50:04;7.85;;;0.90;;
43419;SDS011;29017;51.514;-0.178;2023-05-18T00:52:32;6.22;;;0.60;;
43419;SDS011;29017;51.514;-0.178;2023-05-18T00:55:00;4.10;;;0.57;;
43419;SDS011;29017;51.514;-0.178;2023-05-18T00:57:27;3.78;;;0.60;;
43419;SDS011;29017;51.514;-0.178;2023-05-18T00:59:55;5.55;;;0.70;;
43419;SDS011;29017;51.514;-0.178;2023-05-18T01:02:23;3.35;;;0.68;;
43419;SDS011;29017;51.514;-0.178;2023-05-18T01:04:50;7.93;;;1.48;;
43419;SDS011;29017;51.514;-0.178;2023-05-18T01:07:18;4.50;;;0.50;;
43419;SDS011;29017;51.514;-0.178;2023-05-18T01:09:48;4.88;;;0.93;;
43419;SDS011;29017;51.514;-0.178;2023-05-18T01:12:17;4.97;;;0.63;;
43419;SDS011;29017;51.514;-0.178;2023-05-18T01:17:24;7.70;;;1.20;;
43419;SDS011;29017;51.514;-0.178;2023-05-18T01:25:02;5.65;;;0.55;;
43419;SDS011;29017;51.514;-0.178;2023-05-18T01:27:40;7.07;;;0.50;;
43419;SDS011;29017;51.514;-0.178;2023-05-18T01:30:14;8.25;;;0.75;;
43419;SDS011;29017;51.514;-0.178;2023-05-18T01:32:45;4.90;;;0.55;;
43419;SDS011;29017;51.514;-0.178;2023-05-18T01:35:12;6.53;;;0.60;;
43419;SDS011;29017;51.514;-0.178;2023-05-18T01:37:40;6.82;;;1.00;;
43419;SDS011;29017;51.514;-0.178;2023-05-18T01:40:07;8.05;;;0.80;;
43419;SDS011;29017;51.514;-0.178;2023-05-18T01:42:37;8.77;;;1.13;;
43419;SDS011;29017;51.514;-0.178;2023-05-18T01:45:13;5.72;;;0.65;;
43419;SDS011;29017;51.514;-0.178;2023-05-18T01:47:47;8.48;;;0.90;;
43419;SDS011;29017;51.514;-0.178;2023-05-18T01:50:21;8.10;;;0.73;;
43419;SDS011;29017;51.514;-0.178;2023-05-18T01:53:01;8.38;;;1.35;;
43419;SDS011;29017;51.514;-0.178;2023-05-18T01:55:35;4.53;;;0.75;;
43419;SDS011;29017;51.514;-0.178;2023-05-18T01:58:04;6.28;;;0.82;;
43419;SDS011;29017;51.514;-0.178;2023-05-18T02:00:33;3.20;;;0.57;;
43419;SDS011;29017;51.514;-0.178;2023-05-18T02:03:02;6.95;;;0.60;;
43419;SDS011;29017;51.514;-0.178;2023-05-18T02:05:29;7.95;;;1.00;;
43419;SDS011;29017;51.514;-0.178;2023-05-18T02:07:57;8.45;;;0.65;;
43419;SDS011;29017;51.514;-0.178;2023-05-18T02:10:24;7.90;;;1.13;;
43419;SDS011;29017;51.514;-0.178;2023-05-18T02:12:51;5.90;;;1.05;;
43419;SDS011;29017;51.514;-0.178;2023-05-18T02:15:19;3.40;;;0.75;;
43419;SDS011;29017;51.514;-0.178;2023-05-18T02:17:47;4.43;;;0.70;;
43419;SDS011;29017;51.514;-0.178;2023-05-18T02:20:15;6.05;;;1.00;;
43419;SDS011;29017;51.514;-0.178;2023-05-18T02:22:45;8.15;;;0.90;;
43419;SDS011;29017;51.514;-0.178;2023-05-18T02:25:12;6.75;;;0.80;;
43419;SDS011;29017;51.514;-0.178;2023-05-18T02:27:40;7.75;;;0.52;;
43419;SDS011;29017;51.514;-0.178;2023-05-18T02:30:07;9.32;;;0.60;;
43419;SDS011;29017;51.514;-0.178;2023-05-18T02:32:35;9.32;;;0.65;;
43419;SDS011;29017;51.514;-0.178;2023-05-18T02:35:04;8.65;;;0.93;;
43419;SDS011;29017;51.514;-0.178;2023-05-18T02:37:33;7.70;;;1.58;;
43419;SDS011;29017;51.514;-0.178;2023-05-18T02:40:08;2.75;;;0.47;;
43419;SDS011;29017;51.514;-0.178;2023-05-18T02:42:36;6.22;;;0.73;;
43419;SDS011;29017;51.514;-0.178;2023-05-18T02:45:04;4.75;;;0.60;;
43419;SDS011;29017;51.514;-0.178;2023-05-18T02:47:32;11.13;;;0.60;;
43419;SDS011;29017;51.514;-0.178;2023-05-18T02:50:00;6.60;;;0.50;;
43419;SDS011;29017;51.514;-0.178;2023-05-18T02:52:27;6.30;;;0.70;;
43419;SDS011;29017;51.514;-0.178;2023-05-18T02:54:55;5.82;;;0.60;;
43419;SDS011;29017;51.514;-0.178;2023-05-18T02:57:22;7.15;;;0.50;;
43419;SDS011;29017;51.514;-0.178;2023-05-18T02:59:49;4.80;;;0.60;;
43419;SDS011;29017;51.514;-0.178;2023-05-18T03:02:16;6.80;;;0.80;;
43419;SDS011;29017;51.514;-0.178;2023-05-18T03:04:44;5.22;;;0.70;;
43419;SDS011;29017;51.514;-0.178;2023-05-18T03:07:14;7.38;;;0.93;;
43419;SDS011;29017;51.514;-0.178;2023-05-18T03:09:41;7.13;;;0.70;;
43419;SDS011;29017;51.514;-0.178;2023-05-18T03:12:09;6.50;;;0.82;;
43419;SDS011;29017;51.514;-0.178;2023-05-18T03:14:36;8.45;;;0.80;;
43419;SDS011;29017;51.514;-0.178;2023-05-18T03:17:03;6.07;;;0.90;;
43419;SDS011;29017;51.514;-0.178;2023-05-18T03:19:31;6.13;;;0.68;;
43419;SDS011;29017;51.514;-0.178;2023-05-18T03:22:00;9.13;;;0.85;;
43419;SDS011;29017;51.514;-0.178;2023-05-18T03:24:27;4.97;;;0.90;;
43419;SDS011;29017;51.514;-0.178;2023-05-18T03:26:55;7.40;;;0.60;;
43419;SDS011;29017;51.514;-0.178;2023-05-18T03:29:23;4.90;;;0.75;;
43419;SDS011;29017;51.514;-0.178;2023-05-18T03:31:50;4.20;;;0.70;;
43419;SDS011;29017;51.514;-0.178;2023-05-18T03:34:17;5.80;;;0.90;;
43419;SDS011;29017;51.514;-0.178;2023-05-18T03:36:45;8.30;;;0.60;;
43419;SDS011;29017;51.514;-0.178;2023-05-18T03:39:13;6.97;;;0.70;;
43419;SDS011;29017;51.514;-0.178;2023-05-18T03:41:40;5.20;;;0.80;;
43419;SDS011;29017;51.514;-0.178;2023-05-18T03:44:07;8.20;;;0.90;;
43419;SDS011;29017;51.514;-0.178;2023-05-18T03:46:34;6.88;;;0.60;;
43419;SDS011;29017;51.514;-0.178;2023-05-18T03:49:02;9.52;;;1.50;;
43419;SDS011;29017;51.514;-0.178;2023-05-18T03:51:30;4.88;;;0.50;;
43419;SDS011;29017;51.514;-0.178;2023-05-18T03:53:57;3.97;;;0.50;;
43419;SDS011;29017;51.514;-0.178;2023-05-18T03:56:25;7.43;;;0.85;;
43419;SDS011;29017;51.514;-0.178;2023-05-18T03:58:52;4.80;;;0.50;;
43419;SDS011;29017;51.514;-0.178;2023-05-18T04:01:19;8.10;;;0.88;;
43419;SDS011;29017;51.514;-0.178;2023-05-18T04:03:49;11.05;;;0.88;;
43419;SDS011;29017;51.514;-0.178;2023-05-18T04:06:17;6.25;;;0.77;;
43419;SDS011;29017;51.514;-0.178;2023-05-18T04:08:48;5.05;;;1.23;;
43419;SDS011;29017;51.514;-0.178;2023-05-18T04:11:15;6.32;;;0.50;;
43419;SDS011;29017;51.514;-0.178;2023-05-18T04:13:43;6.53;;;0.70;;
43419;SDS011;29017;51.514;-0.178;2023-05-18T04:16:10;10.80;;;0.77;;
43419;SDS011;29017;51.514;-0.178;2023-05-18T04:18:39;7.20;;;0.60;;
43419;SDS011;29017;51.514;-0.178;2023-05-18T04:21:07;7.20;;;0.57;;
43419;SDS011;29017;51.514;-0.178;2023-05-18T04:23:35;10.90;;;1.52;;
43419;SDS011;29017;51.514;-0.178;2023-05-18T04:26:05;4.43;;;0.50;;
43419;SDS011;29017;51.514;-0.178;2023-05-18T04:28:32;9.52;;;0.90;;
43419;SDS011;29017;51.514;-0.178;2023-05-18T04:30:59;6.85;;;0.60;;
43419;SDS011;29017;51.514;-0.178;2023-05-18T04:33:28;8.13;;;0.65;;
43419;SDS011;29017;51.514;-0.178;2023-05-18T04:35:56;8.80;;;0.95;;
43419;SDS011;29017;51.514;-0.178;2023-05-18T04:38:24;6.32;;;0.65;;
43419;SDS011;29017;51.514;-0.178;2023-05-18T04:40:51;8.20;;;0.70;;
43419;SDS011;29017;51.514;-0.178;2023-05-18T04:43:19;5.93;;;0.70;;
43419;SDS011;29017;51.514;-0.178;2023-05-18T04:45:46;6.90;;;0.70;;
43419;SDS011;29017;51.514;-0.178;2023-05-18T04:48:16;8.02;;;0.85;;
43419;SDS011;29017;51.514;-0.178;2023-05-18T04:50:44;8.30;;;0.70;;
43419;SDS011;29017;51.514;-0.178;2023-05-18T04:53:12;7.65;;;0.70;;
43419;SDS011;29017;51.514;-0.178;2023-05-18T04:55:39;5.90;;;0.50;;
43419;SDS011;29017;51.514;-0.178;2023-05-18T04:58:08;6.22;;;0.50;;
43419;SDS011;29017;51.514;-0.178;2023-05-18T05:00:35;6.03;;;0.80;;
43419;SDS011;29017;51.514;-0.178;2023-05-18T05:03:03;5.10;;;0.88;;
43419;SDS011;29017;51.514;-0.178;2023-05-18T05:05:30;4.40;;;0.80;;
43419;SDS011;29017;51.514;-0.178;2023-05-18T05:07:58;7.45;;;0.70;;
43419;SDS011;29017;51.514;-0.178;2023-05-18T05:10:26;6.32;;;0.68;;
43419;SDS011;29017;51.514;-0.178;2023-05-18T05:12:54;6.97;;;0.98;;
43419;SDS011;29017;51.514;-0.178;2023-05-18T05:15:22;8.20;;;0.75;;
43419;SDS011;29017;51.514;-0.178;2023-05-18T05:17:49;7.03;;;0.80;;
43419;SDS011;29017;51.514;-0.178;2023-05-18T05:20:17;6.43;;;0.73;;
43419;SDS011;29017;51.514;-0.178;2023-05-18T05:22:45;7.85;;;1.10;;
43419;SDS011;29017;51.514;-0.178;2023-05-18T05:25:12;3.55;;;0.60;;
43419;SDS011;29017;51.514;-0.178;2023-05-18T05:27:39;7.00;;;0.70;;
43419;SDS011;29017;51.514;-0.178;2023-05-18T05:30:07;11.80;;;1.00;;
43419;SDS011;29017;51.514;-0.178;2023-05-18T05:32:35;11.48;;;1.40;;
43419;SDS011;29017;51.514;-0.178;2023-05-18T05:35:02;8.20;;;0.98;;
43419;SDS011;29017;51.514;-0.178;2023-05-18T05:37:30;10.13;;;0.88;;
43419;SDS011;29017;51.514;-0.178;2023-05-18T05:39:57;8.73;;;0.88;;
43419;SDS011;29017;51.514;-0.178;2023-05-18T05:42:25;7.25;;;0.80;;
43419;SDS011;29017;51.514;-0.178;2023-05-18T05:44:52;5.82;;;0.60;;
43419;SDS011;29017;51.514;-0.178;2023-05-18T05:47:19;7.03;;;0.80;;
43419;SDS011;29017;51.514;-0.178;2023-05-18T05:49:47;6.18;;;1.02;;
43419;SDS011;29017;51.514;-0.178;2023-05-18T05:52:14;6.53;;;0.73;;
43419;SDS011;29017;51.514;-0.178;2023-05-18T05:54:41;10.82;;;1.15;;
43419;SDS011;29017;51.514;-0.178;2023-05-18T05:57:09;8.88;;;0.60;;
43419;SDS011;29017;51.514;-0.178;2023-05-18T05:59:36;4.85;;;0.60;;
43419;SDS011;29017;51.514;-0.178;2023-05-18T06:02:04;8.38;;;0.98;;
43419;SDS011;29017;51.514;-0.178;2023-05-18T06:04:31;6.50;;;1.30;;
43419;SDS011;29017;51.514;-0.178;2023-05-18T06:06:58;7.82;;;0.95;;
43419;SDS011;29017;51.514;-0.178;2023-05-18T06:09:26;6.82;;;1.23;;
43419;SDS011;29017;51.514;-0.178;2023-05-18T06:11:53;8.90;;;1.13;;
43419;SDS011;29017;51.514;-0.178;2023-05-18T06:14:21;5.85;;;0.70;;
43419;SDS011;29017;51.514;-0.178;2023-05-18T06:16:48;7.25;;;0.70;;
43419;SDS011;29017;51.514;-0.178;2023-05-18T06:19:15;8.23;;;0.93;;
43419;SDS011;29017;51.514;-0.178;2023-05-18T06:21:43;8.85;;;0.80;;
43419;SDS011;29017;51.514;-0.178;2023-05-18T06:24:11;4.20;;;0.70;;
43419;SDS011;29017;51.514;-0.178;2023-05-18T06:26:38;3.70;;;0.50;;
43419;SDS011;29017;51.514;-0.178;2023-05-18T06:29:06;4.55;;;0.50;;
43419;SDS011;29017;51.514;-0.178;2023-05-18T06:31:34;6.85;;;1.33;;
43419;SDS011;29017;51.514;-0.178;2023-05-18T06:34:02;3.70;;;0.77;;
43419;SDS011;29017;51.514;-0.178;2023-05-18T06:36:29;4.78;;;0.60;;
43419;SDS011;29017;51.514;-0.178;2023-05-18T06:38:57;6.85;;;0.70;;
43419;SDS011;29017;51.514;-0.178;2023-05-18T06:41:25;5.03;;;0.50;;
43419;SDS011;29017;51.514;-0.178;2023-05-18T06:43:52;6.20;;;0.60;;
43419;SDS011;29017;51.514;-0.178;2023-05-18T06:46:20;8.93;;;0.57;;
43419;SDS011;29017;51.514;-0.178;2023-05-18T06:48:48;5.38;;;0.63;;
43419;SDS011;29017;51.514;-0.178;2023-05-18T06:51:15;13.63;;;1.00;;
43419;SDS011;29017;51.514;-0.178;2023-05-18T06:53:43;9.05;;;0.90;;
43419;SDS011;29017;51.514;-0.178;2023-05-18T06:56:11;4.97;;;0.80;;
43419;SDS011;29017;51.514;-0.178;2023-05-18T06:58:40;7.45;;;1.15;;
43419;SDS011;29017;51.514;-0.178;2023-05-18T07:01:08;9.07;;;0.90;;
43419;SDS011;29017;51.514;-0.178;2023-05-18T07:03:36;9.02;;;0.68;;
43419;SDS011;29017;51.514;-0.178;2023-05-18T07:06:04;8.75;;;1.15;;
43419;SDS011;29017;51.514;-0.178;2023-05-18T07:08:31;5.53;;;0.60;;
43419;SDS011;29017;51.514;-0.178;2023-05-18T07:10:59;4.40;;;0.63;;
43419;SDS011;29017;51.514;-0.178;2023-05-18T07:13:28;7.18;;;0.70;;
43419;SDS011;29017;51.514;-0.178;2023-05-18T07:15:55;10.25;;;0.80;;
43419;SDS011;29017;51.514;-0.178;2023-05-18T07:18:23;6.90;;;1.95;;
43419;SDS011;29017;51.514;-0.178;2023-05-18T07:20:51;12.45;;;1.92;;
43419;SDS011;29017;51.514;-0.178;2023-05-18T07:23:18;8.27;;;1.20;;
43419;SDS011;29017;51.514;-0.178;2023-05-18T07:25:45;6.28;;;0.98;;
43419;SDS011;29017;51.514;-0.178;2023-05-18T07:28:13;15.10;;;1.95;;
43419;SDS011;29017;51.514;-0.178;2023-05-18T07:30:40;13.05;;;1.35;;
43419;SDS011;29017;51.514;-0.178;2023-05-18T07:33:08;9.05;;;1.50;;
43419;SDS011;29017;51.514;-0.178;2023-05-18T07:35:36;8.90;;;1.60;;
43419;SDS011;29017;51.514;-0.178;2023-05-18T07:38:04;8.20;;;1.20;;
43419;SDS011;29017;51.514;-0.178;2023-05-18T07:40:31;16.10;;;1.27;;
43419;SDS011;29017;51.514;-0.178;2023-05-18T07:42:59;6.72;;;0.90;;
43419;SDS011;29017;51.514;-0.178;2023-05-18T07:45:28;6.60;;;1.02;;
43419;SDS011;29017;51.514;-0.178;2023-05-18T07:48:02;7.78;;;1.00;;
43419;SDS011;29017;51.514;-0.178;2023-05-18T07:50:33;8.32;;;1.13;;
43419;SDS011;29017;51.514;-0.178;2023-05-18T07:53:00;8.95;;;0.80;;
43419;SDS011;29017;51.514;-0.178;2023-05-18T07:55:28;4.97;;;0.90;;
43419;SDS011;29017;51.514;-0.178;2023-05-18T07:57:55;6.40;;;0.82;;
43419;SDS011;29017;51.514;-0.178;2023-05-18T08:00:27;9.38;;;1.50;;
43419;SDS011;29017;51.514;-0.178;2023-05-18T08:02:57;10.68;;;1.75;;
43419;SDS011;29017;51.514;-0.178;2023-05-18T08:05:30;10.00;;;2.38;;
43419;SDS011;29017;51.514;-0.178;2023-05-18T08:08:08;11.95;;;2.42;;
43419;SDS011;29017;51.514;-0.178;2023-05-18T08:10:37;13.90;;;1.70;;
43419;SDS011;29017;51.514;-0.178;2023-05-18T08:13:05;9.23;;;1.88;;
43419;SDS011;29017;51.514;-0.178;2023-05-18T08:15:34;9.68;;;1.85;;
43419;SDS011;29017;51.514;-0.178;2023-05-18T08:18:35;11.13;;;2.55;;
43419;SDS011;29017;51.514;-0.178;2023-05-18T08:21:03;7.90;;;1.83;;
43419;SDS011;29017;51.514;-0.178;2023-05-18T08:23:34;14.60;;;2.65;;
43419;SDS011;29017;51.514;-0.178;2023-05-18T08:26:06;9.93;;;2.78;;
43419;SDS011;29017;51.514;-0.178;2023-05-18T08:28:37;17.55;;;2.80;;
43419;SDS011;29017;51.514;-0.178;2023-05-18T08:31:04;11.30;;;2.83;;
43419;SDS011;29017;51.514;-0.178;2023-05-18T08:33:31;11.55;;;2.67;;
43419;SDS011;29017;51.514;-0.178;2023-05-18T08:35:59;18.75;;;6.07;;
43419;SDS011;29017;51.514;-0.178;2023-05-18T08:38:26;9.07;;;3.13;;
43419;SDS011;29017;51.514;-0.178;2023-05-18T08:40:58;7.55;;;2.05;;
43419;SDS011;29017;51.514;-0.178;2023-05-18T08:43:28;8.48;;;2.40;;
43419;SDS011;29017;51.514;-0.178;2023-05-18T08:48:32;10.52;;;2.78;;
43419;SDS011;29017;51.514;-0.178;2023-05-18T08:51:02;10.25;;;3.00;;
43419;SDS011;29017;51.514;-0.178;2023-05-18T08:53:32;7.43;;;2.55;;
43419;SDS011;29017;51.514;-0.178;2023-05-18T08:56:03;8.52;;;2.78;;
43419;SDS011;29017;51.514;-0.178;2023-05-18T08:58:34;12.23;;;2.60;;
43419;SDS011;29017;51.514;-0.178;2023-05-18T09:01:04;11.60;;;2.60;;
43419;SDS011;29017;51.514;-0.178;2023-05-18T09:03:32;10.65;;;2.53;;
43419;SDS011;29017;51.514;-0.178;2023-05-18T09:06:09;7.88;;;2.40;;
43419;SDS011;29017;51.514;-0.178;2023-05-18T09:08:37;13.13;;;4.32;;
43419;SDS011;29017;51.514;-0.178;2023-05-18T09:11:05;12.75;;;3.00;;
43419;SDS011;29017;51.514;-0.178;2023-05-18T09:13:34;10.82;;;2.60;;
43419;SDS011;29017;51.514;-0.178;2023-05-18T09:16:02;8.32;;;2.20;;
43419;SDS011;29017;51.514;-0.178;2023-05-18T09:18:30;9.30;;;2.42;;
43419;SDS011;29017;51.514;-0.178;2023-05-18T09:20:58;12.57;;;2.45;;
43419;SDS011;29017;51.514;-0.178;2023-05-18T09:23:26;7.68;;;2.70;;
43419;SDS011;29017;51.514;-0.178;2023-05-18T09:25:53;11.88;;;2.50;;
43419;SDS011;29017;51.514;-0.178;2023-05-18T09:30:54;5.80;;;1.50;;
43419;SDS011;29017;51.514;-0.178;2023-05-18T09:33:21;7.80;;;1.67;;
43419;SDS011;29017;51.514;-0.178;2023-05-18T09:35:49;7.90;;;1.63;;
43419;SDS011;29017;51.514;-0.178;2023-05-18T09:38:20;7.82;;;2.10;;
43419;SDS011;29017;51.514;-0.178;2023-05-18T09:40:49;6.90;;;1.90;;
43419;SDS011;29017;51.514;-0.178;2023-05-18T09:43:17;6.15;;;1.58;;
43419;SDS011;29017;51.514;-0.178;2023-05-18T09:45:47;7.97;;;1.77;;
43419;SDS011;29017;51.514;-0.178;2023-05-18T09:48:19;12.93;;;1.98;;
43419;SDS011;29017;51.514;-0.178;2023-05-18T09:50:50;8.63;;;1.80;;
43419;SDS011;29017;51.514;-0.178;2023-05-18T09:53:18;9.35;;;2.47;;
43419;SDS011;29017;51.514;-0.178;2023-05-18T09:55:48;8.85;;;1.50;;
43419;SDS011;29017;51.514;-0.178;2023-05-18T09:58:17;9.77;;;1.95;;
43419;SDS011;29017;51.514;-0.178;2023-05-18T10:00:46;5.30;;;1.27;;
43419;SDS011;29017;51.514;-0.178;2023-05-18T10:03:19;3.15;;;0.88;;
43419;SDS011;29017;51.514;-0.178;2023-05-18T10:05:52;4.38;;;1.52;;
43419;SDS011;29017;51.514;-0.178;2023-05-18T10:08:20;4.72;;;1.27;;
43419;SDS011;29017;51.514;-0.178;2023-05-18T10:10:48;5.28;;;1.25;;
43419;SDS011;29017;51.514;-0.178;2023-05-18T10:13:31;6.53;;;1.58;;
43419;SDS011;29017;51.514;-0.178;2023-05-18T10:16:04;8.27;;;1.27;;
43419;SDS011;29017;51.514;-0.178;2023-05-18T10:18:38;7.20;;;1.38;;
43419;SDS011;29017;51.514;-0.178;2023-05-18T10:21:07;7.85;;;1.05;;
43419;SDS011;29017;51.514;-0.178;2023-05-18T10:23:43;7.28;;;1.80;;
43419;SDS011;29017;51.514;-0.178;2023-05-18T10:26:15;8.15;;;1.88;;
43419;SDS011;29017;51.514;-0.178;2023-05-18T10:28:53;8.48;;;2.00;;
43419;SDS011;29017;51.514;-0.178;2023-05-18T10:31:30;13.00;;;2.05;;
43419;SDS011;29017;51.514;-0.178;2023-05-18T10:34:03;11.40;;;1.60;;
43419;SDS011;29017;51.514;-0.178;2023-05-18T10:36:32;6.63;;;1.23;;
43419;SDS011;29017;51.514;-0.178;2023-05-18T10:39:02;6.60;;;1.60;;
43419;SDS011;29017;51.514;-0.178;2023-05-18T10:41:30;7.90;;;1.88;;
43419;SDS011;29017;51.514;-0.178;2023-05-18T10:44:00;7.47;;;1.10;;
43419;SDS011;29017;51.514;-0.178;2023-05-18T10:46:30;7.43;;;1.30;;
43419;SDS011;29017;51.514;-0.178;2023-05-18T10:49:03;6.70;;;1.23;;
43419;SDS011;29017;51.514;-0.178;2023-05-18T10:51:41;6.97;;;1.45;;
43419;SDS011;29017;51.514;-0.178;2023-05-18T10:54:11;6.70;;;1.10;;
43419;SDS011;29017;51.514;-0.178;2023-05-18T10:56:41;6.70;;;1.58;;
43419;SDS011;29017;51.514;-0.178;2023-05-18T10:59:12;11.13;;;1.87;;
43419;SDS011;29017;51.514;-0.178;2023-05-18T11:01:41;7.70;;;2.47;;
43419;SDS011;29017;51.514;-0.178;2023-05-18T11:04:09;12.52;;;1.52;;
43419;SDS011;29017;51.514;-0.178;2023-05-18T11:06:38;7.63;;;1.40;;
43419;SDS011;29017;51.514;-0.178;2023-05-18T11:09:06;8.10;;;1.98;;
43419;SDS011;29017;51.514;-0.178;2023-05-18T11:14:08;8.27;;;1.25;;
43419;SDS011;29017;51.514;-0.178;2023-05-18T11:16:36;8.13;;;1.40;;
43419;SDS011;29017;51.514;-0.178;2023-05-18T11:19:08;6.37;;;1.20;;
43419;SDS011;29017;51.514;-0.178;2023-05-18T11:26:45;9.10;;;1.13;;
43419;SDS011;29017;51.514;-0.178;2023-05-18T11:31:51;9.07;;;1.60;;
43419;SDS011;29017;51.514;-0.178;2023-05-18T11:36:54;7.03;;;2.00;;
43419;SDS011;29017;51.514;-0.178;2023-05-18T11:39:22;8.23;;;1.75;;
43419;SDS011;29017;51.514;-0.178;2023-05-18T11:44:24;12.40;;;1.60;;
43419;SDS011;29017;51.514;-0.178;2023-05-18T11:49:29;7.43;;;1.42;;
43419;SDS011;29017;51.514;-0.178;2023-05-18T11:52:02;7.20;;;1.60;;
43419;SDS011;29017;51.514;-0.178;2023-05-18T11:54:33;6.25;;;1.00;;
43419;SDS011;29017;51.514;-0.178;2023-05-18T11:57:04;8.15;;;1.38;;
43419;SDS011;29017;51.514;-0.178;2023-05-18T11:59:35;7.60;;;1.15;;
43419;SDS011;29017;51.514;-0.178;2023-05-18T12:02:05;8.30;;;1.67;;
43419;SDS011;29017;51.514;-0.178;2023-05-18T12:04:34;6.78;;;1.48;;
43419;SDS011;29017;51.514;-0.178;2023-05-18T12:07:08;8.25;;;1.42;;
43419;SDS011;29017;51.514;-0.178;2023-05-18T12:09:38;5.65;;;1.40;;
43419;SDS011;29017;51.514;-0.178;2023-05-18T12:12:08;6.40;;;2.13;;
43419;SDS011;29017;51.514;-0.178;2023-05-18T12:14:37;5.88;;;1.48;;
43419;SDS011;29017;51.514;-0.178;2023-05-18T12:17:08;8.23;;;1.80;;
43419;SDS011;29017;51.514;-0.178;2023-05-18T12:19:41;7.78;;;1.95;;
43419;SDS011;29017;51.514;-0.178;2023-05-18T12:22:14;8.13;;;1.20;;
43419;SDS011;29017;51.514;-0.178;2023-05-18T12:24:42;10.30;;;1.80;;
43419;SDS011;29017;51.514;-0.178;2023-05-18T12:27:10;12.63;;;2.20;;
43419;SDS011;29017;51.514;-0.178;2023-05-18T12:29:39;10.05;;;1.50;;
43419;SDS011;29017;51.514;-0.178;2023-05-18T12:32:08;15.00;;;2.85;;
43419;SDS011;29017;51.514;-0.178;2023-05-18T12:34:38;8.80;;;1.67;;
43419;SDS011;29017;51.514;-0.178;2023-05-18T12:37:06;5.18;;;1.23;;
43419;SDS011;29017;51.514;-0.178;2023-05-18T12:39:34;6.47;;;1.75;;
43419;SDS011;29017;51.514;-0.178;2023-05-18T12:44:36;6.43;;;1.50;;
43419;SDS011;29017;51.514;-0.178;2023-05-18T12:47:05;10.63;;;1.77;;
43419;SDS011;29017;51.514;-0.178;2023-05-18T12:49:34;6.57;;;1.60;;
43419;SDS011;29017;51.514;-0.178;2023-05-18T12:57:16;8.68;;;1.73;;
43419;SDS011;29017;51.514;-0.178;2023-05-18T12:59:47;5.13;;;1.33;;
43419;SDS011;29017;51.514;-0.178;2023-05-18T13:04:58;14.65;;;1.88;;
43419;SDS011;29017;51.514;-0.178;2023-05-18T13:07:28;8.70;;;1.67;;
43419;SDS011;29017;51.514;-0.178;2023-05-18T13:17:35;7.63;;;1.65;;
43419;SDS011;29017;51.514;-0.178;2023-05-18T13:20:10;6.82;;;1.65;;
43419;SDS011;29017;51.514;-0.178;2023-05-18T13:22:40;8.38;;;1.73;;
43419;SDS011;29017;51.514;-0.178;2023-05-18T13:25:09;7.38;;;1.20;;
43419;SDS011;29017;51.514;-0.178;2023-05-18T13:27:37;8.60;;;1.65;;
43419;SDS011;29017;51.514;-0.178;2023-05-18T13:30:06;7.55;;;1.90;;
43419;SDS011;29017;51.514;-0.178;2023-05-18T13:32:34;7.13;;;1.58;;
43419;SDS011;29017;51.514;-0.178;2023-05-18T13:35:02;5.85;;;1.30;;
43419;SDS011;29017;51.514;-0.178;2023-05-18T13:37:31;10.63;;;2.00;;
43419;SDS011;29017;51.514;-0.178;2023-05-18T13:39:58;7.90;;;3.10;;
43419;SDS011;29017;51.514;-0.178;2023-05-18T13:42:26;7.50;;;1.85;;
43419;SDS011;29017;51.514;-0.178;2023-05-18T13:44:54;6.20;;;1.40;;
43419;SDS011;29017;51.514;-0.178;2023-05-18T13:47:23;6.55;;;1.50;;
43419;SDS011;29017;51.514;-0.178;2023-05-18T13:49:51;10.65;;;1.63;;
43419;SDS011;29017;51.514;-0.178;2023-05-18T13:52:19;5.18;;;1.40;;
43419;SDS011;29017;51.514;-0.178;2023-05-18T13:54:47;4.50;;;1.17;;
43419;SDS011;29017;51.514;-0.178;2023-05-18T13:57:15;3.90;;;1.00;;
43419;SDS011;29017;51.514;-0.178;2023-05-18T13:59:43;4.78;;;1.60;;
43419;SDS011;29017;51.514;-0.178;2023-05-18T14:02:10;6.88;;;1.58;;
43419;SDS011;29017;51.514;-0.178;2023-05-18T14:04:38;3.72;;;1.05;;
43419;SDS011;29017;51.514;-0.178;2023-05-18T14:07:07;6.85;;;2.47;;
43419;SDS011;29017;51.514;-0.178;2023-05-18T14:09:38;5.82;;;1.10;;
43419;SDS011;29017;51.514;-0.178;2023-05-18T14:12:07;8.07;;;1.30;;
43419;SDS011;29017;51.514;-0.178;2023-05-18T14:14:36;5.15;;;0.85;;
43419;SDS011;29017;51.514;-0.178;2023-05-18T14:17:04;7.15;;;1.08;;
43419;SDS011;29017;51.514;-0.178;2023-05-18T14:19:36;7.43;;;1.10;;
43419;SDS011;29017;51.514;-0.178;2023-05-18T14:22:08;5.20;;;0.95;;
43419;SDS011;29017;51.514;-0.178;2023-05-18T14:24:42;8.05;;;1.30;;
43419;SDS011;29017;51.514;-0.178;2023-05-18T14:27:22;5.40;;;1.08;;
43419;SDS011;29017;51.514;-0.178;2023-05-18T14:30:08;6.88;;;1.40;;
43419;SDS011;29017;51.514;-0.178;2023-05-18T14:32:36;4.35;;;1.05;;
43419;SDS011;29017;51.514;-0.178;2023-05-18T14:35:04;4.43;;;1.00;;
43419;SDS011;29017;51.514;-0.178;2023-05-18T14:37:33;4.35;;;1.10;;
43419;SDS011;29017;51.514;-0.178;2023-05-18T14:40:07;6.30;;;1.00;;
43419;SDS011;29017;51.514;-0.178;2023-05-18T14:42:59;9.40;;;1.20;;
43419;SDS011;29017;51.514;-0.178;2023-05-18T14:45:40;6.18;;;1.40;;
43419;SDS011;29017;51.514;-0.178;2023-05-18T14:48:43;6.50;;;1.17;;
43419;SDS011;29017;51.514;-0.178;2023-05-18T14:51:14;6.55;;;2.22;;
43419;SDS011;29017;51.514;-0.178;2023-05-18T14:53:53;3.10;;;1.10;;
43419;SDS011;29017;51.514;-0.178;2023-05-18T14:56:24;4.90;;;0.93;;
43419;SDS011;29017;51.514;-0.178;2023-05-18T14:59:01;4.32;;;1.20;;
43419;SDS011;29017;51.514;-0.178;2023-05-18T15:01:37;4.50;;;1.00;;
43419;SDS011;29017;51.514;-0.178;2023-05-18T15:04:09;4.65;;;1.00;;
43419;SDS011;29017;51.514;-0.178;2023-05-18T15:06:38;5.22;;;1.13;;
43419;SDS011;29017;51.514;-0.178;2023-05-18T15:11:39;8.02;;;1.10;;
43419;SDS011;29017;51.514;-0.178;2023-05-18T15:14:07;8.02;;;1.08;;
43419;SDS011;29017;51.514;-0.178;2023-05-18T15:16:36;7.65;;;1.17;;
43419;SDS011;29017;51.514;-0.178;2023-05-18T15:19:08;6.55;;;1.17;;
43419;SDS011;29017;51.514;-0.178;2023-05-18T15:21:37;6.30;;;1.10;;
43419;SDS011;29017;51.514;-0.178;2023-05-18T15:24:05;8.55;;;1.48;;
43419;SDS011;29017;51.514;-0.178;2023-05-18T15:26:36;8.98;;;1.23;;
43419;SDS011;29017;51.514;-0.178;2023-05-18T15:29:32;12.57;;;1.77;;
43419;SDS011;29017;51.514;-0.178;2023-05-18T15:32:02;5.47;;;1.30;;
43419;SDS011;29017;51.514;-0.178;2023-05-18T15:34:33;6.45;;;1.42;;
43419;SDS011;29017;51.514;-0.178;2023-05-18T15:37:00;6.25;;;1.38;;